sensor_id;sensor_type;location;lat;lon;timestamp;P1;P2;P0
80289;PMS7003;69592;44.804;-0.550;2023-09-19T00:01:05;3.00;2.00;1.00
80289;PMS7003;69592;44.804;-0.550;2023-09-19T00:03:36;1.00;1.00;1.00
80289;PMS7003;69592;44.804;-0.550;2023-09-19T00:06:04;2.00;2.00;1.00
80289;PMS7003;69592;44.804;-0.550;2023-09-19T00:08:32;6.00;3.00;2.00
80289;PMS7003;69592;44.804;-0.550;2023-09-19T00:10:58;4.67;3.00;2.67
80289;PMS7003;69592;44.804;-0.550;2023-09-19T00:13:30;4.00;2.33;2.00
80289;PMS7003;69592;44.804;-0.550;2023-09-19T00:15:56;3.00;1.00;1.00
80289;PMS7003;69592;44.804;-0.550;2023-09-19T00:18:24;2.00;2.00;1.00
80289;PMS7003;69592;44.804;-0.550;2023-09-19T00:20:57;2.67;2.67;2.00
80289;PMS7003;69592;44.804;-0.550;2023-09-19T00:23:25;1.00;1.00;0.67
80289;PMS7003;69592;44.804;-0.550;2023-09-19T00:25:51;2.00;2.00;2.00
80289;PMS7003;69592;44.804;-0.550;2023-09-19T00:28:17;2.33;2.00;2.00
80289;PMS7003;69592;44.804;-0.550;2023-09-19T00:30:44;3.00;3.00;3.00
80289;PMS7003;69592;44.804;-0.550;2023-09-19T00:33:15;2.33;2.33;2.00
80289;PMS7003;69592;44.804;-0.550;2023-09-19T00:35:50;3.00;3.00;2.00
80289;PMS7003;69592;44.804;-0.550;2023-09-19T00:38:16;4.00;4.00;3.00
80289;PMS7003;69592;44.804;-0.550;2023-09-19T00:40:45;2.00;2.00;2.00
80289;PMS7003;69592;44.804;-0.550;2023-09-19T00:43:10;4.00;3.00;2.67
80289;PMS7003;69592;44.804;-0.550;2023-09-19T00:45:36;4.00;2.67;2.00
80289;PMS7003;69592;44.804;-0.550;2023-09-19T00:48:03;4.00;3.00;2.00
80289;PMS7003;69592;44.804;-0.550;2023-09-19T00:50:31;3.00;3.00;2.00
80289;PMS7003;69592;44.804;-0.550;2023-09-19T00:52:57;3.00;3.00;2.33
80289;PMS7003;69592;44.804;-0.550;2023-09-19T00:55:24;2.33;2.33;2.33
80289;PMS7003;69592;44.804;-0.550;2023-09-19T00:57:50;5.00;4.00;2.67
80289;PMS7003;69592;44.804;-0.550;2023-09-19T01:00:16;2.33;2.33;2.00
80289;PMS7003;69592;44.804;-0.550;2023-09-19T01:02:45;4.00;3.00;2.00
80289;PMS7003;69592;44.804;-0.550;2023-09-19T01:05:11;4.00;3.00;2.00
80289;PMS7003;69592;44.804;-0.550;2023-09-19T01:07:37;4.67;4.33;3.00
80289;PMS7003;69592;44.804;-0.550;2023-09-19T01:10:06;4.33;3.00;2.67
80289;PMS7003;69592;44.804;-0.550;2023-09-19T01:26:55;3.00;3.00;2.00
80289;PMS7003;69592;44.804;-0.550;2023-09-19T01:32:11;3.67;2.67;2.00
80289;PMS7003;69592;44.804;-0.550;2023-09-19T01:37:28;4.00;4.00;3.00
80289;PMS7003;69592;44.804;-0.550;2023-09-19T01:40:04;3.00;3.00;2.67
80289;PMS7003;69592;44.804;-0.550;2023-09-19T01:42:43;4.33;3.00;2.00
80289;PMS7003;69592;44.804;-0.550;2023-09-19T01:45:31;3.33;3.33;2.67
80289;PMS7003;69592;44.804;-0.550;2023-09-19T01:50:56;3.33;2.67;2.33
80289;PMS7003;69592;44.804;-0.550;2023-09-19T01:53:26;3.33;3.33;3.00
80289;PMS7003;69592;44.804;-0.550;2023-09-19T01:55:56;3.00;3.00;2.00
80289;PMS7003;69592;44.804;-0.550;2023-09-19T02:00:57;4.50;4.50;2.50
80289;PMS7003;69592;44.804;-0.550;2023-09-19T02:03:25;2.67;2.67;2.00
80289;PMS7003;69592;44.804;-0.550;2023-09-19T02:05:53;3.33;3.00;2.00
80289;PMS7003;69592;44.804;-0.550;2023-09-19T02:08:20;2.67;2.67;2.00
80289;PMS7003;69592;44.804;-0.550;2023-09-19T02:10:50;3.33;2.33;2.00
80289;PMS7003;69592;44.804;-0.550;2023-09-19T02:13:16;3.00;3.00;3.00
80289;PMS7003;69592;44.804;-0.550;2023-09-19T02:15:42;4.33;4.00;3.00
80289;PMS7003;69592;44.804;-0.550;2023-09-19T02:18:09;3.00;3.00;2.33
80289;PMS7003;69592;44.804;-0.550;2023-09-19T02:20:35;4.00;3.33;2.00
80289;PMS7003;69592;44.804;-0.550;2023-09-19T02:23:00;4.00;4.00;3.00
80289;PMS7003;69592;44.804;-0.550;2023-09-19T02:25:27;4.00;4.00;3.00
80289;PMS7003;69592;44.804;-0.550;2023-09-19T02:27:53;3.67;3.67;3.00
80289;PMS7003;69592;44.804;-0.550;2023-09-19T02:30:19;2.00;2.00;2.00
80289;PMS7003;69592;44.804;-0.550;2023-09-19T02:32:48;3.00;3.00;3.00
80289;PMS7003;69592;44.804;-0.550;2023-09-19T02:35:14;4.00;4.00;3.00
80289;PMS7003;69592;44.804;-0.550;2023-09-19T02:37:41;3.33;3.33;3.00
80289;PMS7003;69592;44.804;-0.550;2023-09-19T02:40:07;4.00;4.00;3.00
80289;PMS7003;69592;44.804;-0.550;2023-09-19T02:42:43;3.00;3.00;2.00
80289;PMS7003;69592;44.804;-0.550;2023-09-19T02:45:13;4.00;4.00;3.33
80289;PMS7003;69592;44.804;-0.550;2023-09-19T02:47:42;3.00;3.00;3.00
80289;PMS7003;69592;44.804;-0.550;2023-09-19T02:50:09;3.00;3.00;3.00
80289;PMS7003;69592;44.804;-0.550;2023-09-19T02:52:38;3.67;3.67;3.00
80289;PMS7003;69592;44.804;-0.550;2023-09-19T02:55:06;4.00;4.00;3.00
80289;PMS7003;69592;44.804;-0.550;2023-09-19T02:57:32;3.67;3.33;2.67
80289;PMS7003;69592;44.804;-0.550;2023-09-19T02:59:58;3.00;3.00;2.00
80289;PMS7003;69592;44.804;-0.550;2023-09-19T03:02:24;5.00;3.33;3.00
80289;PMS7003;69592;44.804;-0.550;2023-09-19T03:04:49;2.33;2.33;2.33
80289;PMS7003;69592;44.804;-0.550;2023-09-19T03:07:16;5.00;4.00;3.00
80289;PMS7003;69592;44.804;-0.550;2023-09-19T03:09:42;4.67;4.00;3.00
80289;PMS7003;69592;44.804;-0.550;2023-09-19T03:12:08;3.33;3.00;3.00
80289;PMS7003;69592;44.804;-0.550;2023-09-19T03:14:33;3.00;3.00;2.33
80289;PMS7003;69592;44.804;-0.550;2023-09-19T03:17:00;4.00;4.00;2.00
80289;PMS7003;69592;44.804;-0.550;2023-09-19T03:19:29;5.33;5.33;3.33
80289;PMS7003;69592;44.804;-0.550;2023-09-19T03:21:55;3.00;3.00;2.00
80289;PMS7003;69592;44.804;-0.550;2023-09-19T03:24:22;6.00;4.67;4.00
80289;PMS7003;69592;44.804;-0.550;2023-09-19T03:26:48;4.00;4.00;4.00
80289;PMS7003;69592;44.804;-0.550;2023-09-19T03:29:14;4.00;4.00;4.00
80289;PMS7003;69592;44.804;-0.550;2023-09-19T03:31:40;5.33;4.33;3.33
80289;PMS7003;69592;44.804;-0.550;2023-09-19T03:34:06;5.00;5.00;3.67
80289;PMS7003;69592;44.804;-0.550;2023-09-19T03:36:31;5.00;3.67;3.00
80289;PMS7003;69592;44.804;-0.550;2023-09-19T03:39:00;3.00;3.00;2.33
80289;PMS7003;69592;44.804;-0.550;2023-09-19T03:41:26;4.00;4.00;3.00
80289;PMS7003;69592;44.804;-0.550;2023-09-19T03:43:52;4.00;4.00;3.00
80289;PMS7003;69592;44.804;-0.550;2023-09-19T03:46:18;4.67;3.00;2.67
80289;PMS7003;69592;44.804;-0.550;2023-09-19T03:48:43;6.00;4.00;3.67
80289;PMS7003;69592;44.804;-0.550;2023-09-19T03:51:08;5.00;3.33;3.00
80289;PMS7003;69592;44.804;-0.550;2023-09-19T03:53:34;3.00;3.00;3.00
80289;PMS7003;69592;44.804;-0.550;2023-09-19T03:56:00;5.67;4.00;3.33
80289;PMS7003;69592;44.804;-0.550;2023-09-19T03:58:26;4.67;4.67;3.67
80289;PMS7003;69592;44.804;-0.550;2023-09-19T04:00:54;3.33;3.33;3.00
80289;PMS7003;69592;44.804;-0.550;2023-09-19T04:03:20;5.00;5.00;4.00
80289;PMS7003;69592;44.804;-0.550;2023-09-19T04:05:46;4.00;4.00;3.00
80289;PMS7003;69592;44.804;-0.550;2023-09-19T04:08:12;3.00;3.00;3.00
80289;PMS7003;69592;44.804;-0.550;2023-09-19T04:10:39;4.33;4.33;3.00
80289;PMS7003;69592;44.804;-0.550;2023-09-19T04:13:06;3.00;3.00;2.33
80289;PMS7003;69592;44.804;-0.550;2023-09-19T04:15:32;4.67;4.00;4.00
80289;PMS7003;69592;44.804;-0.550;2023-09-19T04:17:58;4.67;3.67;3.00
80289;PMS7003;69592;44.804;-0.550;2023-09-19T04:20:23;5.00;5.00;3.00
80289;PMS7003;69592;44.804;-0.550;2023-09-19T04:22:49;3.33;3.33;3.00
80289;PMS7003;69592;44.804;-0.550;2023-09-19T04:25:14;4.00;4.00;3.33
80289;PMS7003;69592;44.804;-0.550;2023-09-19T04:27:40;7.00;4.33;3.00
80289;PMS7003;69592;44.804;-0.550;2023-09-19T04:30:07;2.67;2.67;2.33
80289;PMS7003;69592;44.804;-0.550;2023-09-19T04:32:36;4.67;4.33;4.00
80289;PMS7003;69592;44.804;-0.550;2023-09-19T04:35:04;5.00;4.00;3.00
80289;PMS7003;69592;44.804;-0.550;2023-09-19T04:37:34;2.00;2.00;2.00
80289;PMS7003;69592;44.804;-0.550;2023-09-19T04:40:01;9.67;5.00;3.00
80289;PMS7003;69592;44.804;-0.550;2023-09-19T04:42:29;3.00;3.00;2.00
80289;PMS7003;69592;44.804;-0.550;2023-09-19T04:44:55;3.67;3.67;3.00
80289;PMS7003;69592;44.804;-0.550;2023-09-19T04:47:20;5.00;3.00;2.67
80289;PMS7003;69592;44.804;-0.550;2023-09-19T04:49:47;3.67;1.67;1.00
80289;PMS7003;69592;44.804;-0.550;2023-09-19T04:52:12;6.00;4.67;3.00
80289;PMS7003;69592;44.804;-0.550;2023-09-19T04:54:40;7.33;5.00;4.00
80289;PMS7003;69592;44.804;-0.550;2023-09-19T04:57:06;5.00;4.00;3.00
80289;PMS7003;69592;44.804;-0.550;2023-09-19T04:59:32;4.00;4.00;3.00
80289;PMS7003;69592;44.804;-0.550;2023-09-19T05:01:57;4.00;4.00;3.00
80289;PMS7003;69592;44.804;-0.550;2023-09-19T05:04:23;3.00;3.00;3.00
80289;PMS7003;69592;44.804;-0.550;2023-09-19T05:06:48;3.67;3.67;3.00
80289;PMS7003;69592;44.804;-0.550;2023-09-19T05:09:14;4.00;4.00;3.00
80289;PMS7003;69592;44.804;-0.550;2023-09-19T05:11:44;4.33;4.33;3.00
80289;PMS7003;69592;44.804;-0.550;2023-09-19T05:14:10;5.00;3.67;3.00
80289;PMS7003;69592;44.804;-0.550;2023-09-19T05:16:36;7.67;4.00;3.00
80289;PMS7003;69592;44.804;-0.550;2023-09-19T05:19:02;5.00;3.67;3.00
80289;PMS7003;69592;44.804;-0.550;2023-09-19T05:21:27;5.33;5.33;4.00
80289;PMS7003;69592;44.804;-0.550;2023-09-19T05:23:56;3.33;3.33;2.67
80289;PMS7003;69592;44.804;-0.550;2023-09-19T05:26:21;7.25;6.50;4.00
80289;PMS7003;69592;44.804;-0.550;2023-09-19T05:28:46;6.67;5.00;4.00
80289;PMS7003;69592;44.804;-0.550;2023-09-19T05:31:15;5.00;5.00;4.00
80289;PMS7003;69592;44.804;-0.550;2023-09-19T05:33:41;4.00;4.00;3.00
80289;PMS7003;69592;44.804;-0.550;2023-09-19T05:36:07;8.50;8.50;5.75
80289;PMS7003;69592;44.804;-0.550;2023-09-19T05:38:35;8.67;6.00;5.00
80289;PMS7003;69592;44.804;-0.550;2023-09-19T05:41:01;6.33;4.67;4.67
80289;PMS7003;69592;44.804;-0.550;2023-09-19T05:43:27;4.00;4.00;3.00
80289;PMS7003;69592;44.804;-0.550;2023-09-19T05:45:53;4.33;4.33;4.00
80289;PMS7003;69592;44.804;-0.550;2023-09-19T05:48:21;3.33;3.33;2.67
80289;PMS7003;69592;44.804;-0.550;2023-09-19T05:50:47;5.00;5.00;4.00
80289;PMS7003;69592;44.804;-0.550;2023-09-19T05:53:13;4.67;3.67;3.00
80289;PMS7003;69592;44.804;-0.550;2023-09-19T05:55:39;5.33;5.33;4.00
80289;PMS7003;69592;44.804;-0.550;2023-09-19T05:58:05;6.67;5.00;4.00
80289;PMS7003;69592;44.804;-0.550;2023-09-19T06:00:30;6.67;5.00;4.00
80289;PMS7003;69592;44.804;-0.550;2023-09-19T06:02:57;5.00;5.00;3.00
80289;PMS7003;69592;44.804;-0.550;2023-09-19T06:05:23;5.25;5.00;4.00
80289;PMS7003;69592;44.804;-0.550;2023-09-19T06:07:51;5.25;5.25;3.50
80289;PMS7003;69592;44.804;-0.550;2023-09-19T06:10:17;4.67;4.67;4.00
80289;PMS7003;69592;44.804;-0.550;2023-09-19T06:12:45;4.00;4.00;3.00
80289;PMS7003;69592;44.804;-0.550;2023-09-19T06:15:15;4.00;4.00;3.00
80289;PMS7003;69592;44.804;-0.550;2023-09-19T06:17:47;5.75;5.75;3.75
80289;PMS7003;69592;44.804;-0.550;2023-09-19T06:20:14;4.67;4.67;4.00
80289;PMS7003;69592;44.804;-0.550;2023-09-19T06:22:41;7.00;7.00;5.25
80289;PMS7003;69592;44.804;-0.550;2023-09-19T06:25:07;5.25;4.50;4.00
80289;PMS7003;69592;44.804;-0.550;2023-09-19T06:27:36;5.00;5.00;4.25
80289;PMS7003;69592;44.804;-0.550;2023-09-19T06:30:02;4.75;4.75;3.75
80289;PMS7003;69592;44.804;-0.550;2023-09-19T06:32:28;4.00;4.00;3.00
80289;PMS7003;69592;44.804;-0.550;2023-09-19T06:34:53;6.00;4.00;4.00
80289;PMS7003;69592;44.804;-0.550;2023-09-19T06:37:20;3.33;3.33;3.00
80289;PMS7003;69592;44.804;-0.550;2023-09-19T06:39:46;4.00;3.33;2.33
80289;PMS7003;69592;44.804;-0.550;2023-09-19T06:42:14;5.33;5.00;4.00
80289;PMS7003;69592;44.804;-0.550;2023-09-19T06:44:42;6.67;5.33;3.67
80289;PMS7003;69592;44.804;-0.550;2023-09-19T06:47:07;10.00;5.00;4.00
80289;PMS7003;69592;44.804;-0.550;2023-09-19T06:49:34;4.00;4.00;3.50
80289;PMS7003;69592;44.804;-0.550;2023-09-19T06:52:00;5.50;4.50;4.00
80289;PMS7003;69592;44.804;-0.550;2023-09-19T06:54:25;5.00;5.00;5.00
80289;PMS7003;69592;44.804;-0.550;2023-09-19T06:56:58;7.25;7.25;4.00
80289;PMS7003;69592;44.804;-0.550;2023-09-19T06:59:24;6.25;6.00;4.50
80289;PMS7003;69592;44.804;-0.550;2023-09-19T07:01:49;5.33;4.00;4.00
80289;PMS7003;69592;44.804;-0.550;2023-09-19T07:04:16;4.00;4.00;3.67
80289;PMS7003;69592;44.804;-0.550;2023-09-19T07:06:42;4.67;4.67;3.67
80289;PMS7003;69592;44.804;-0.550;2023-09-19T07:09:07;5.00;5.00;3.00
80289;PMS7003;69592;44.804;-0.550;2023-09-19T07:11:33;4.33;4.33;4.00
80289;PMS7003;69592;44.804;-0.550;2023-09-19T07:13:59;8.00;4.00;3.00
80289;PMS7003;69592;44.804;-0.550;2023-09-19T07:16:24;3.33;3.33;3.00
80289;PMS7003;69592;44.804;-0.550;2023-09-19T07:18:54;8.00;6.00;5.00
80289;PMS7003;69592;44.804;-0.550;2023-09-19T07:21:21;4.33;4.33;4.00
80289;PMS7003;69592;44.804;-0.550;2023-09-19T07:23:47;6.00;6.00;4.33
80289;PMS7003;69592;44.804;-0.550;2023-09-19T07:26:12;3.33;3.33;3.00
80289;PMS7003;69592;44.804;-0.550;2023-09-19T07:28:38;6.00;6.00;4.00
80289;PMS7003;69592;44.804;-0.550;2023-09-19T07:31:03;4.00;4.00;3.00
80289;PMS7003;69592;44.804;-0.550;2023-09-19T07:33:30;5.33;4.00;3.00
80289;PMS7003;69592;44.804;-0.550;2023-09-19T07:35:55;4.00;4.00;3.00
80289;PMS7003;69592;44.804;-0.550;2023-09-19T07:38:21;7.33;6.00;4.33
80289;PMS7003;69592;44.804;-0.550;2023-09-19T07:40:46;6.33;5.00;3.67
80289;PMS7003;69592;44.804;-0.550;2023-09-19T07:43:11;6.00;4.67;3.00
80289;PMS7003;69592;44.804;-0.550;2023-09-19T07:45:37;6.00;4.67;3.00
80289;PMS7003;69592;44.804;-0.550;2023-09-19T07:48:02;2.00;2.00;2.00
80289;PMS7003;69592;44.804;-0.550;2023-09-19T07:50:29;4.67;4.67;3.67
80289;PMS7003;69592;44.804;-0.550;2023-09-19T07:52:55;4.33;3.67;3.00
80289;PMS7003;69592;44.804;-0.550;2023-09-19T07:55:21;6.67;6.67;4.00
80289;PMS7003;69592;44.804;-0.550;2023-09-19T07:57:54;5.00;4.00;4.00
80289;PMS7003;69592;44.804;-0.550;2023-09-19T08:00:19;4.00;4.00;3.00
80289;PMS7003;69592;44.804;-0.550;2023-09-19T08:02:44;7.00;5.00;3.33
80289;PMS7003;69592;44.804;-0.550;2023-09-19T08:05:11;5.00;3.67;3.00
80289;PMS7003;69592;44.804;-0.550;2023-09-19T08:07:41;5.33;4.67;4.00
80289;PMS7003;69592;44.804;-0.550;2023-09-19T08:10:09;3.00;3.00;3.00
80289;PMS7003;69592;44.804;-0.550;2023-09-19T08:12:39;5.33;3.67;3.00
80289;PMS7003;69592;44.804;-0.550;2023-09-19T08:15:15;4.33;4.00;3.33
80289;PMS7003;69592;44.804;-0.550;2023-09-19T08:17:41;4.00;4.00;3.67
80289;PMS7003;69592;44.804;-0.550;2023-09-19T08:20:08;6.00;4.00;3.67
80289;PMS7003;69592;44.804;-0.550;2023-09-19T08:22:43;4.00;4.00;3.00
80289;PMS7003;69592;44.804;-0.550;2023-09-19T08:25:10;6.00;4.33;3.00
80289;PMS7003;69592;44.804;-0.550;2023-09-19T08:27:36;5.67;4.00;3.00
80289;PMS7003;69592;44.804;-0.550;2023-09-19T08:30:02;4.00;4.00;3.00
80289;PMS7003;69592;44.804;-0.550;2023-09-19T08:32:28;6.00;4.00;4.00
80289;PMS7003;69592;44.804;-0.550;2023-09-19T08:34:54;6.00;3.00;3.00
80289;PMS7003;69592;44.804;-0.550;2023-09-19T08:37:19;5.33;3.67;2.00
80289;PMS7003;69592;44.804;-0.550;2023-09-19T08:39:44;2.00;2.00;2.00
80289;PMS7003;69592;44.804;-0.550;2023-09-19T08:42:10;5.00;3.67;3.00
80289;PMS7003;69592;44.804;-0.550;2023-09-19T08:44:37;4.00;4.00;2.33
80289;PMS7003;69592;44.804;-0.550;2023-09-19T08:47:14;4.00;4.00;2.00
80289;PMS7003;69592;44.804;-0.550;2023-09-19T08:52:42;3.00;3.00;2.00
80289;PMS7003;69592;44.804;-0.550;2023-09-19T08:55:12;4.33;3.67;3.00
80289;PMS7003;69592;44.804;-0.550;2023-09-19T08:57:45;5.00;3.00;3.00
80289;PMS7003;69592;44.804;-0.550;2023-09-19T09:00:14;3.00;3.00;2.67
80289;PMS7003;69592;44.804;-0.550;2023-09-19T09:02:42;5.67;3.33;2.00
80289;PMS7003;69592;44.804;-0.550;2023-09-19T09:05:08;4.67;3.33;2.33
80289;PMS7003;69592;44.804;-0.550;2023-09-19T09:07:36;3.67;3.67;2.00
80289;PMS7003;69592;44.804;-0.550;2023-09-19T09:10:02;4.00;4.00;3.00
80289;PMS7003;69592;44.804;-0.550;2023-09-19T09:12:28;1.33;1.33;1.00
80289;PMS7003;69592;44.804;-0.550;2023-09-19T09:14:54;0.00;0.00;0.00
80289;PMS7003;69592;44.804;-0.550;2023-09-19T09:17:26;3.33;3.00;1.00
80289;PMS7003;69592;44.804;-0.550;2023-09-19T09:19:52;1.67;1.67;1.33
80289;PMS7003;69592;44.804;-0.550;2023-09-19T09:22:22;1.00;1.00;1.00
80289;PMS7003;69592;44.804;-0.550;2023-09-19T09:24:55;2.67;1.67;1.00
80289;PMS7003;69592;44.804;-0.550;2023-09-19T09:27:28;1.67;1.33;0.67
80289;PMS7003;69592;44.804;-0.550;2023-09-19T09:29:54;3.00;1.33;1.00
80289;PMS7003;69592;44.804;-0.550;2023-09-19T09:34:56;1.00;1.00;0.00
80289;PMS7003;69592;44.804;-0.550;2023-09-19T09:37:25;1.33;1.33;1.00
80289;PMS7003;69592;44.804;-0.550;2023-09-19T09:40:00;0.67;0.00;0.00
80289;PMS7003;69592;44.804;-0.550;2023-09-19T09:42:39;3.33;3.00;2.33
80289;PMS7003;69592;44.804;-0.550;2023-09-19T09:45:21;2.00;1.00;0.67
80289;PMS7003;69592;44.804;-0.550;2023-09-19T09:47:53;1.67;1.67;1.00
80289;PMS7003;69592;44.804;-0.550;2023-09-19T09:50:32;4.00;2.33;2.00
80289;PMS7003;69592;44.804;-0.550;2023-09-19T09:58:30;1.67;0.33;0.33
80289;PMS7003;69592;44.804;-0.550;2023-09-19T10:00:57;2.00;1.00;1.00
80289;PMS7003;69592;44.804;-0.550;2023-09-19T10:03:31;2.00;1.00;1.00
80289;PMS7003;69592;44.804;-0.550;2023-09-19T10:05:59;1.00;1.00;0.33
80289;PMS7003;69592;44.804;-0.550;2023-09-19T10:08:27;1.00;1.00;1.00
80289;PMS7003;69592;44.804;-0.550;2023-09-19T10:10:56;1.33;1.33;1.00
80289;PMS7003;69592;44.804;-0.550;2023-09-19T10:13:31;3.00;2.00;1.67
80289;PMS7003;69592;44.804;-0.550;2023-09-19T10:16:03;2.00;1.00;1.00
80289;PMS7003;69592;44.804;-0.550;2023-09-19T10:18:35;3.00;2.00;2.00
80289;PMS7003;69592;44.804;-0.550;2023-09-19T10:21:03;2.00;2.00;1.00
80289;PMS7003;69592;44.804;-0.550;2023-09-19T10:23:31;0.00;0.00;0.00
80289;PMS7003;69592;44.804;-0.550;2023-09-19T10:25:59;4.00;3.00;2.00
80289;PMS7003;69592;44.804;-0.550;2023-09-19T10:28:27;2.67;1.00;1.00
80289;PMS7003;69592;44.804;-0.550;2023-09-19T10:31:00;2.00;2.00;2.00
80289;PMS7003;69592;44.804;-0.550;2023-09-19T10:33:26;1.33;1.33;1.00
80289;PMS7003;69592;44.804;-0.550;2023-09-19T10:36:01;4.00;2.00;2.00
80289;PMS7003;69592;44.804;-0.550;2023-09-19T10:38:29;2.00;1.00;1.00
80289;PMS7003;69592;44.804;-0.550;2023-09-19T10:40:57;2.00;1.00;1.00
80289;PMS7003;69592;44.804;-0.550;2023-09-19T10:43:29;5.00;3.33;2.00
80289;PMS7003;69592;44.804;-0.550;2023-09-19T10:46:03;3.00;3.00;2.00
80289;PMS7003;69592;44.804;-0.550;2023-09-19T10:48:32;3.67;2.00;2.00
80289;PMS7003;69592;44.804;-0.550;2023-09-19T10:51:33;2.00;2.00;1.00
80289;PMS7003;69592;44.804;-0.550;2023-09-19T10:54:05;1.33;1.33;1.00
80289;PMS7003;69592;44.804;-0.550;2023-09-19T10:56:38;2.00;2.00;1.00
80289;PMS7003;69592;44.804;-0.550;2023-09-19T10:59:12;1.00;1.00;1.00
80289;PMS7003;69592;44.804;-0.550;2023-09-19T11:01:53;1.67;1.67;1.00
80289;PMS7003;69592;44.804;-0.550;2023-09-19T11:07:14;1.00;1.00;1.00
80289;PMS7003;69592;44.804;-0.550;2023-09-19T11:14:57;4.00;2.00;1.67
80289;PMS7003;69592;44.804;-0.550;2023-09-19T11:30:49;1.75;1.75;1.00
80289;PMS7003;69592;44.804;-0.550;2023-09-19T11:33:21;2.25;1.75;1.00
80289;PMS7003;69592;44.804;-0.550;2023-09-19T11:46:55;2.00;1.50;0.75
80289;PMS7003;69592;44.804;-0.550;2023-09-19T11:49:28;2.00;2.00;1.25
80289;PMS7003;69592;44.804;-0.550;2023-09-19T11:52:01;2.75;1.50;1.00
80289;PMS7003;69592;44.804;-0.550;2023-09-19T11:54:30;1.50;1.00;1.00
80289;PMS7003;69592;44.804;-0.550;2023-09-19T11:56:57;1.50;1.50;1.25
80289;PMS7003;69592;44.804;-0.550;2023-09-19T11:59:24;1.75;1.75;1.00
80289;PMS7003;69592;44.804;-0.550;2023-09-19T12:02:01;2.75;2.75;2.00
80289;PMS7003;69592;44.804;-0.550;2023-09-19T12:04:33;3.00;2.00;1.50
80289;PMS7003;69592;44.804;-0.550;2023-09-19T12:07:09;1.00;1.00;1.00
80289;PMS7003;69592;44.804;-0.550;2023-09-19T12:09:42;4.50;2.75;1.75
80289;PMS7003;69592;44.804;-0.550;2023-09-19T12:12:09;0.00;0.00;0.00
80289;PMS7003;69592;44.804;-0.550;2023-09-19T12:14:37;2.00;2.00;1.75
80289;PMS7003;69592;44.804;-0.550;2023-09-19T12:17:04;2.25;2.25;1.75
80289;PMS7003;69592;44.804;-0.550;2023-09-19T12:19:30;2.00;2.00;2.00
80289;PMS7003;69592;44.804;-0.550;2023-09-19T12:21:59;2.00;2.00;1.00
80289;PMS7003;69592;44.804;-0.550;2023-09-19T12:24:29;2.00;2.00;2.00
80289;PMS7003;69592;44.804;-0.550;2023-09-19T12:26:59;2.75;2.00;2.00
80289;PMS7003;69592;44.804;-0.550;2023-09-19T12:29:26;1.00;1.00;1.00
80289;PMS7003;69592;44.804;-0.550;2023-09-19T12:31:55;1.75;1.75;1.00
80289;PMS7003;69592;44.804;-0.550;2023-09-19T12:34:28;1.00;1.00;1.00
80289;PMS7003;69592;44.804;-0.550;2023-09-19T12:37:05;3.00;2.00;2.00
80289;PMS7003;69592;44.804;-0.550;2023-09-19T12:39:42;2.00;1.25;1.00
80289;PMS7003;69592;44.804;-0.550;2023-09-19T12:42:15;4.50;3.00;3.00
80289;PMS7003;69592;44.804;-0.550;2023-09-19T12:44:42;2.50;2.00;1.00
80289;PMS7003;69592;44.804;-0.550;2023-09-19T12:47:10;4.25;3.25;2.00
80289;PMS7003;69592;44.804;-0.550;2023-09-19T13:03:12;12.25;11.50;7.25
80289;PMS7003;69592;44.804;-0.550;2023-09-19T13:05:57;2.00;2.00;1.00
80289;PMS7003;69592;44.804;-0.550;2023-09-19T13:14:13;1.75;1.75;1.00
80289;PMS7003;69592;44.804;-0.550;2023-09-19T13:16:54;2.00;2.00;1.60
80289;PMS7003;69592;44.804;-0.550;2023-09-19T13:22:04;1.00;1.00;1.00
80289;PMS7003;69592;44.804;-0.550;2023-09-19T13:24:30;2.75;2.00;1.00
80289;PMS7003;69592;44.804;-0.550;2023-09-19T13:27:00;2.00;2.00;1.80
80289;PMS7003;69592;44.804;-0.550;2023-09-19T13:29:25;2.00;2.00;1.75
80289;PMS7003;69592;44.804;-0.550;2023-09-19T13:31:51;2.00;2.00;2.00
80289;PMS7003;69592;44.804;-0.550;2023-09-19T13:34:18;2.00;2.00;2.00
80289;PMS7003;69592;44.804;-0.550;2023-09-19T13:36:45;4.40;3.20;2.00
80289;PMS7003;69592;44.804;-0.550;2023-09-19T13:39:13;2.20;2.00;2.00
80289;PMS7003;69592;44.804;-0.550;2023-09-19T13:41:40;4.50;2.25;2.00
80289;PMS7003;69592;44.804;-0.550;2023-09-19T13:44:06;4.50;3.00;2.25
80289;PMS7003;69592;44.804;-0.550;2023-09-19T13:46:31;2.75;1.75;1.50
80289;PMS7003;69592;44.804;-0.550;2023-09-19T13:48:59;4.40;2.00;2.00
80289;PMS7003;69592;44.804;-0.550;2023-09-19T13:51:28;2.00;2.00;1.75
80289;PMS7003;69592;44.804;-0.550;2023-09-19T13:53:55;1.80;1.80;1.00
80289;PMS7003;69592;44.804;-0.550;2023-09-19T13:56:20;1.75;1.75;1.00
80289;PMS7003;69592;44.804;-0.550;2023-09-19T13:58:46;1.25;1.25;1.00
80289;PMS7003;69592;44.804;-0.550;2023-09-19T14:01:12;1.00;1.00;1.00
80289;PMS7003;69592;44.804;-0.550;2023-09-19T14:03:41;1.00;1.00;1.00
80289;PMS7003;69592;44.804;-0.550;2023-09-19T14:06:12;1.00;1.00;1.00
80289;PMS7003;69592;44.804;-0.550;2023-09-19T14:08:38;1.00;1.00;1.00
80289;PMS7003;69592;44.804;-0.550;2023-09-19T14:11:09;1.75;1.00;1.00
80289;PMS7003;69592;44.804;-0.550;2023-09-19T14:13:35;1.40;1.40;1.00
80289;PMS7003;69592;44.804;-0.550;2023-09-19T14:16:06;1.75;1.75;1.50
80289;PMS7003;69592;44.804;-0.550;2023-09-19T14:18:33;2.00;2.00;1.40
80289;PMS7003;69592;44.804;-0.550;2023-09-19T14:21:02;2.00;2.00;1.00
80289;PMS7003;69592;44.804;-0.550;2023-09-19T14:23:28;5.00;2.20;2.00
80289;PMS7003;69592;44.804;-0.550;2023-09-19T14:25:54;3.00;2.00;2.00
80289;PMS7003;69592;44.804;-0.550;2023-09-19T14:28:19;4.00;3.00;2.00
80289;PMS7003;69592;44.804;-0.550;2023-09-19T14:30:44;2.00;2.00;1.00
80289;PMS7003;69592;44.804;-0.550;2023-09-19T14:33:11;1.00;1.00;1.00
80289;PMS7003;69592;44.804;-0.550;2023-09-19T14:35:37;1.60;1.60;1.20
80289;PMS7003;69592;44.804;-0.550;2023-09-19T14:38:03;3.00;3.00;2.00
80289;PMS7003;69592;44.804;-0.550;2023-09-19T14:40:29;3.00;2.00;1.75
80289;PMS7003;69592;44.804;-0.550;2023-09-19T14:42:54;2.00;2.00;1.75
80289;PMS7003;69592;44.804;-0.550;2023-09-19T14:45:19;1.25;1.00;1.00
80289;PMS7003;69592;44.804;-0.550;2023-09-19T14:47:50;3.00;2.00;1.00
80289;PMS7003;69592;44.804;-0.550;2023-09-19T14:50:17;2.80;2.80;1.60
80289;PMS7003;69592;44.804;-0.550;2023-09-19T14:52:42;2.00;2.00;1.00
80289;PMS7003;69592;44.804;-0.550;2023-09-19T14:55:09;1.80;1.00;1.00
80289;PMS7003;69592;44.804;-0.550;2023-09-19T14:57:39;1.80;1.80;1.60
80289;PMS7003;69592;44.804;-0.550;2023-09-19T15:00:05;1.00;1.00;1.00
80289;PMS7003;69592;44.804;-0.550;2023-09-19T15:02:37;1.00;1.00;1.00
80289;PMS7003;69592;44.804;-0.550;2023-09-19T15:05:05;3.00;2.00;2.00
80289;PMS7003;69592;44.804;-0.550;2023-09-19T15:07:33;1.80;1.40;1.00
80289;PMS7003;69592;44.804;-0.550;2023-09-19T15:10:02;2.80;1.00;1.00
80289;PMS7003;69592;44.804;-0.550;2023-09-19T15:12:31;2.00;2.00;2.00
80289;PMS7003;69592;44.804;-0.550;2023-09-19T15:14:58;1.40;1.40;0.80
80289;PMS7003;69592;44.804;-0.550;2023-09-19T15:17:23;2.50;1.75;1.25
80289;PMS7003;69592;44.804;-0.550;2023-09-19T15:19:50;0.20;0.20;0.00
80289;PMS7003;69592;44.804;-0.550;2023-09-19T15:22:15;1.00;1.00;1.00
80289;PMS7003;69592;44.804;-0.550;2023-09-19T15:24:41;1.00;1.00;1.00
80289;PMS7003;69592;44.804;-0.550;2023-09-19T15:27:07;1.50;1.50;1.25
80289;PMS7003;69592;44.804;-0.550;2023-09-19T15:29:32;2.00;2.00;2.00
80289;PMS7003;69592;44.804;-0.550;2023-09-19T15:31:57;1.00;1.00;1.00
80289;PMS7003;69592;44.804;-0.550;2023-09-19T15:34:26;1.60;1.60;1.00
80289;PMS7003;69592;44.804;-0.550;2023-09-19T15:36:53;1.20;1.20;0.80
80289;PMS7003;69592;44.804;-0.550;2023-09-19T15:39:18;1.75;1.75;1.75
80289;PMS7003;69592;44.804;-0.550;2023-09-19T15:41:47;1.00;1.00;1.00
80289;PMS7003;69592;44.804;-0.550;2023-09-19T15:44:14;3.20;3.20;3.00